sensor_id;sensor_type;location;lat;lon;timestamp;pressure;altitude;pressure_sealevel;temperature;humidity
46846;BME280;33947;46.804;134.252;2023-02-23T00:01:24;101230.06;;;-11.28;49.07
46846;BME280;33947;46.804;134.252;2023-02-23T00:04:30;101226.78;;;-10.78;50.30
46846;BME280;33947;46.804;134.252;2023-02-23T00:11:20;101227.50;;;-10.93;49.59
46846;BME280;33947;46.804;134.252;2023-02-23T00:14:26;101231.28;;;-10.99;49.39
46846;BME280;33947;46.804;134.252;2023-02-23T00:17:31;101239.97;;;-10.85;48.59
46846;BME280;33947;46.804;134.252;2023-02-23T00:20:36;101218.69;;;-11.20;49.04
46846;BME280;33947;46.804;134.252;2023-02-23T00:23:49;101248.59;;;-10.09;50.62
46846;BME280;33947;46.804;134.252;2023-02-23T00:26:53;101236.66;;;-9.02;48.85
46846;BME280;33947;46.804;134.252;2023-02-23T00:29:58;101251.91;;;-8.35;48.14
46846;BME280;33947;46.804;134.252;2023-02-23T00:33:05;101246.34;;;-7.39;45.76
46846;BME280;33947;46.804;134.252;2023-02-23T00:36:13;101249.16;;;-7.04;44.74
46846;BME280;33947;46.804;134.252;2023-02-23T00:39:18;101245.81;;;-6.55;44.52
46846;BME280;33947;46.804;134.252;2023-02-23T00:42:31;101260.56;;;-5.86;44.58
46846;BME280;33947;46.804;134.252;2023-02-23T00:45:36;101251.25;;;-4.38;42.57
46846;BME280;33947;46.804;134.252;2023-02-23T00:48:40;101247.38;;;-4.47;41.77
46846;BME280;33947;46.804;134.252;2023-02-23T00:51:44;101251.47;;;-3.74;42.29
46846;BME280;33947;46.804;134.252;2023-02-23T00:54:49;101242.34;;;-3.00;39.53
46846;BME280;33947;46.804;134.252;2023-02-23T00:57:56;101244.81;;;-2.81;39.33
46846;BME280;33947;46.804;134.252;2023-02-23T01:01:08;101252.16;;;-3.78;37.20
46846;BME280;33947;46.804;134.252;2023-02-23T01:04:13;101251.53;;;-4.12;39.63
46846;BME280;33947;46.804;134.252;2023-02-23T01:07:17;101257.38;;;-3.14;40.04
46846;BME280;33947;46.804;134.252;2023-02-23T01:14:56;101252.28;;;-2.20;38.48
46846;BME280;33947;46.804;134.252;2023-02-23T01:24:02;101261.44;;;-2.31;38.20
46846;BME280;33947;46.804;134.252;2023-02-23T01:27:13;101239.97;;;-2.26;38.62
46846;BME280;33947;46.804;134.252;2023-02-23T01:30:21;101239.13;;;-1.50;37.95
46846;BME280;33947;46.804;134.252;2023-02-23T01:33:25;101255.72;;;-1.47;37.23
46846;BME280;33947;46.804;134.252;2023-02-23T01:36:33;101246.97;;;-1.49;37.82
46846;BME280;33947;46.804;134.252;2023-02-23T01:39:38;101222.59;;;-0.96;38.26
46846;BME280;33947;46.804;134.252;2023-02-23T01:42:45;101249.13;;;-0.22;36.49
46846;BME280;33947;46.804;134.252;2023-02-23T01:45:49;101249.22;;;0.45;36.17
46846;BME280;33947;46.804;134.252;2023-02-23T01:48:55;101225.63;;;0.77;36.30
46846;BME280;33947;46.804;134.252;2023-02-23T01:52:04;101229.38;;;1.68;34.64
46846;BME280;33947;46.804;134.252;2023-02-23T01:55:10;101230.63;;;1.05;31.83
46846;BME280;33947;46.804;134.252;2023-02-23T01:58:19;101215.31;;;0.48;35.27
46846;BME280;33947;46.804;134.252;2023-02-23T02:01:23;101223.84;;;0.76;35.74
46846;BME280;33947;46.804;134.252;2023-02-23T02:04:28;101211.44;;;-0.32;36.71
46846;BME280;33947;46.804;134.252;2023-02-23T02:07:36;101213.34;;;-0.57;37.81
46846;BME280;33947;46.804;134.252;2023-02-23T02:10:43;101190.34;;;0.60;36.00
46846;BME280;33947;46.804;134.252;2023-02-23T02:13:49;101187.34;;;-0.83;37.21
46846;BME280;33947;46.804;134.252;2023-02-23T02:17:05;101225.84;;;0.51;35.81
46846;BME280;33947;46.804;134.252;2023-02-23T02:30:20;101228.25;;;-0.22;37.99
46846;BME280;33947;46.804;134.252;2023-02-23T02:40:39;101233.53;;;-0.51;38.57
46846;BME280;33947;46.804;134.252;2023-02-23T02:47:54;101233.47;;;-1.09;36.72
46846;BME280;33947;46.804;134.252;2023-02-23T02:51:16;101196.03;;;-2.65;37.06
46846;BME280;33947;46.804;134.252;2023-02-23T02:57:40;101205.06;;;-1.29;39.22
46846;BME280;33947;46.804;134.252;2023-02-23T03:00:49;101221.34;;;-2.37;38.99
46846;BME280;33947;46.804;134.252;2023-02-23T03:04:22;101214.53;;;-2.80;40.16
46846;BME280;33947;46.804;134.252;2023-02-23T03:08:17;101146.09;;;-3.02;40.83
46846;BME280;33947;46.804;134.252;2023-02-23T03:11:39;101149.44;;;-2.09;39.74
46846;BME280;33947;46.804;134.252;2023-02-23T03:19:08;101185.84;;;-2.10;40.63
46846;BME280;33947;46.804;134.252;2023-02-23T03:29:59;101191.47;;;-1.98;40.13
46846;BME280;33947;46.804;134.252;2023-02-23T03:33:43;101182.84;;;-1.71;40.02
46846;BME280;33947;46.804;134.252;2023-02-23T03:37:19;101187.53;;;-1.86;38.56
46846;BME280;33947;46.804;134.252;2023-02-23T03:40:44;101184.63;;;-2.20;41.64
46846;BME280;33947;46.804;134.252;2023-02-23T03:44:14;101165.19;;;-2.54;41.29
46846;BME280;33947;46.804;134.252;2023-02-23T03:47:40;101169.19;;;-2.40;41.00
46846;BME280;33947;46.804;134.252;2023-02-23T03:51:07;101183.75;;;-2.45;41.19
46846;BME280;33947;46.804;134.252;2023-02-23T03:54:37;101174.94;;;-2.24;41.93
46846;BME280;33947;46.804;134.252;2023-02-23T03:58:04;101177.31;;;-2.30;41.05
46846;BME280;33947;46.804;134.252;2023-02-23T04:01:30;101177.53;;;-2.24;41.60
46846;BME280;33947;46.804;134.252;2023-02-23T04:04:58;101176.59;;;-2.51;40.66
46846;BME280;33947;46.804;134.252;2023-02-23T04:08:28;101177.22;;;-2.58;42.07
46846;BME280;33947;46.804;134.252;2023-02-23T04:15:29;101173.47;;;-2.16;41.30
46846;BME280;33947;46.804;134.252;2023-02-23T04:18:36;101176.38;;;-2.33;41.45
46846;BME280;33947;46.804;134.252;2023-02-23T04:21:41;101164.75;;;-2.67;41.49
46846;BME280;33947;46.804;134.252;2023-02-23T04:24:45;101179.09;;;-2.54;42.36
46846;BME280;33947;46.804;134.252;2023-02-23T04:31:38;101168.41;;;-3.07;43.16
46846;BME280;33947;46.804;134.252;2023-02-23T04:34:44;101161.56;;;-2.82;42.08
46846;BME280;33947;46.804;134.252;2023-02-23T04:37:52;101183.19;;;-3.06;41.62
46846;BME280;33947;46.804;134.252;2023-02-23T04:40:56;101181.41;;;-2.84;42.78
46846;BME280;33947;46.804;134.252;2023-02-23T04:44:03;101135.75;;;-3.00;42.28
46846;BME280;33947;46.804;134.252;2023-02-23T04:47:08;101173.06;;;-2.28;42.26
46846;BME280;33947;46.804;134.252;2023-02-23T04:50:14;101180.75;;;-2.79;42.89
46846;BME280;33947;46.804;134.252;2023-02-23T04:53:20;101163.19;;;-2.62;42.49
46846;BME280;33947;46.804;134.252;2023-02-23T04:56:24;101182.78;;;-2.94;42.86
46846;BME280;33947;46.804;134.252;2023-02-23T04:59:29;101181.72;;;-2.99;42.70
46846;BME280;33947;46.804;134.252;2023-02-23T05:02:36;101166.09;;;-2.77;41.88
46846;BME280;33947;46.804;134.252;2023-02-23T05:05:40;101171.91;;;-2.37;42.13
46846;BME280;33947;46.804;134.252;2023-02-23T05:08:46;101170.50;;;-2.02;41.55
46846;BME280;33947;46.804;134.252;2023-02-23T05:11:53;101157.13;;;-2.12;41.15
46846;BME280;33947;46.804;134.252;2023-02-23T05:14:58;101173.56;;;-2.14;42.03
46846;BME280;33947;46.804;134.252;2023-02-23T05:18:02;101143.03;;;-2.67;42.15
46846;BME280;33947;46.804;134.252;2023-02-23T05:21:08;101179.03;;;-2.55;43.49
46846;BME280;33947;46.804;134.252;2023-02-23T05:24:17;101168.72;;;-2.52;41.67
46846;BME280;33947;46.804;134.252;2023-02-23T05:27:22;101155.25;;;-2.42;43.23
46846;BME280;33947;46.804;134.252;2023-02-23T05:30:26;101161.63;;;-2.32;43.37
46846;BME280;33947;46.804;134.252;2023-02-23T05:33:33;101157.66;;;-2.22;42.18
46846;BME280;33947;46.804;134.252;2023-02-23T05:36:37;101163.00;;;-1.67;40.82
46846;BME280;33947;46.804;134.252;2023-02-23T05:39:42;101164.06;;;-2.12;42.02
46846;BME280;33947;46.804;134.252;2023-02-23T05:42:47;101162.72;;;-2.27;42.30
46846;BME280;33947;46.804;134.252;2023-02-23T05:45:51;101159.63;;;-2.15;41.58
46846;BME280;33947;46.804;134.252;2023-02-23T05:48:59;101163.91;;;-2.17;41.62
46846;BME280;33947;46.804;134.252;2023-02-23T05:52:04;101157.88;;;-1.90;41.80
46846;BME280;33947;46.804;134.252;2023-02-23T05:55:10;101165.66;;;-2.42;41.30
46846;BME280;33947;46.804;134.252;2023-02-23T05:58:14;101167.16;;;-2.47;43.35
46846;BME280;33947;46.804;134.252;2023-02-23T06:01:20;101165.56;;;-2.19;42.17
46846;BME280;33947;46.804;134.252;2023-02-23T06:04:25;101138.59;;;-2.21;41.39
46846;BME280;33947;46.804;134.252;2023-02-23T06:07:29;101171.22;;;-1.81;41.25
46846;BME280;33947;46.804;134.252;2023-02-23T06:10:34;101165.59;;;-1.93;41.34
46846;BME280;33947;46.804;134.252;2023-02-23T06:13:38;101165.75;;;-2.14;41.70
46846;BME280;33947;46.804;134.252;2023-02-23T06:16:42;101164.81;;;-2.41;42.27
46846;BME280;33947;46.804;134.252;2023-02-23T06:19:48;101154.78;;;-2.06;40.89
46846;BME280;33947;46.804;134.252;2023-02-23T06:22:52;101173.44;;;-1.66;40.00
46846;BME280;33947;46.804;134.252;2023-02-23T06:25:57;101176.88;;;-2.43;40.96
46846;BME280;33947;46.804;134.252;2023-02-23T06:29:03;101174.16;;;-2.22;41.21
46846;BME280;33947;46.804;134.252;2023-02-23T06:32:07;101177.84;;;-2.41;40.78
46846;BME280;33947;46.804;134.252;2023-02-23T06:35:14;101172.72;;;-2.62;42.29
46846;BME280;33947;46.804;134.252;2023-02-23T06:38:41;101172.03;;;-2.32;41.35
46846;BME280;33947;46.804;134.252;2023-02-23T06:41:55;101177.03;;;-2.38;41.68
46846;BME280;33947;46.804;134.252;2023-02-23T06:45:09;101143.06;;;-2.43;41.35
46846;BME280;33947;46.804;134.252;2023-02-23T06:48:17;101184.19;;;-2.80;41.85
46846;BME280;33947;46.804;134.252;2023-02-23T06:51:22;101183.66;;;-2.94;41.53
46846;BME280;33947;46.804;134.252;2023-02-23T06:54:33;101179.31;;;-2.70;41.93
46846;BME280;33947;46.804;134.252;2023-02-23T06:57:48;101167.75;;;-2.56;41.58
46846;BME280;33947;46.804;134.252;2023-02-23T07:01:02;101151.38;;;-3.00;40.59
46846;BME280;33947;46.804;134.252;2023-02-23T07:04:12;101184.00;;;-2.62;40.63
46846;BME280;33947;46.804;134.252;2023-02-23T07:07:27;101180.69;;;-2.33;41.11
46846;BME280;33947;46.804;134.252;2023-02-23T07:10:39;101181.91;;;-2.48;40.85
46846;BME280;33947;46.804;134.252;2023-02-23T07:13:49;101117.47;;;-2.79;40.85
46846;BME280;33947;46.804;134.252;2023-02-23T07:16:54;101125.66;;;-3.15;40.70
46846;BME280;33947;46.804;134.252;2023-02-23T07:19:58;101177.22;;;-2.81;41.49
46846;BME280;33947;46.804;134.252;2023-02-23T07:23:02;101159.13;;;-2.78;41.08
46846;BME280;33947;46.804;134.252;2023-02-23T07:26:06;101185.63;;;-2.65;41.31
46846;BME280;33947;46.804;134.252;2023-02-23T07:29:12;101110.34;;;-3.08;40.82
46846;BME280;33947;46.804;134.252;2023-02-23T07:32:16;101181.06;;;-2.94;40.27
46846;BME280;33947;46.804;134.252;2023-02-23T07:35:20;101182.72;;;-2.96;40.63
46846;BME280;33947;46.804;134.252;2023-02-23T07:38:25;101159.88;;;-3.49;41.61
46846;BME280;33947;46.804;134.252;2023-02-23T07:41:28;101149.13;;;-3.58;41.86
46846;BME280;33947;46.804;134.252;2023-02-23T07:44:33;101162.97;;;-3.36;41.69
46846;BME280;33947;46.804;134.252;2023-02-23T07:47:37;101163.59;;;-3.21;40.80
46846;BME280;33947;46.804;134.252;2023-02-23T07:50:42;101176.50;;;-3.22;40.94
46846;BME280;33947;46.804;134.252;2023-02-23T07:53:46;101158.63;;;-3.14;40.95
46846;BME280;33947;46.804;134.252;2023-02-23T07:56:51;101178.31;;;-2.98;40.66
46846;BME280;33947;46.804;134.252;2023-02-23T07:59:56;101168.94;;;-3.16;40.40
46846;BME280;33947;46.804;134.252;2023-02-23T08:03:03;101173.97;;;-3.42;40.74
46846;BME280;33947;46.804;134.252;2023-02-23T08:06:08;101177.16;;;-3.49;40.48
46846;BME280;33947;46.804;134.252;2023-02-23T08:09:12;101144.06;;;-3.76;40.59
46846;BME280;33947;46.804;134.252;2023-02-23T08:12:17;101164.53;;;-3.82;40.38
46846;BME280;33947;46.804;134.252;2023-02-23T08:15:20;101175.50;;;-3.89;40.72
46846;BME280;33947;46.804;134.252;2023-02-23T08:18:25;101162.72;;;-4.06;41.31
46846;BME280;33947;46.804;134.252;2023-02-23T08:21:30;101174.72;;;-4.08;41.48
46846;BME280;33947;46.804;134.252;2023-02-23T08:24:35;101178.16;;;-4.09;41.36
46846;BME280;33947;46.804;134.252;2023-02-23T08:27:40;101186.88;;;-4.27;41.13
46846;BME280;33947;46.804;134.252;2023-02-23T08:30:46;101182.47;;;-4.49;41.30
46846;BME280;33947;46.804;134.252;2023-02-23T08:33:52;101172.09;;;-4.69;41.03
46846;BME280;33947;46.804;134.252;2023-02-23T08:36:57;101149.00;;;-4.82;41.34
46846;BME280;33947;46.804;134.252;2023-02-23T08:40:05;101192.34;;;-4.60;41.75
46846;BME280;33947;46.804;134.252;2023-02-23T08:43:10;101201.28;;;-4.73;42.03
46846;BME280;33947;46.804;134.252;2023-02-23T08:46:14;101206.03;;;-4.82;42.37
46846;BME280;33947;46.804;134.252;2023-02-23T08:49:21;101183.41;;;-5.04;43.02
46846;BME280;33947;46.804;134.252;2023-02-23T08:52:25;101182.97;;;-5.14;43.89
46846;BME280;33947;46.804;134.252;2023-02-23T08:55:37;101200.28;;;-4.95;43.55
46846;BME280;33947;46.804;134.252;2023-02-23T08:58:41;101208.78;;;-5.15;44.41
46846;BME280;33947;46.804;134.252;2023-02-23T09:01:46;101210.22;;;-5.40;45.72
46846;BME280;33947;46.804;134.252;2023-02-23T09:04:50;101218.63;;;-5.62;45.72
46846;BME280;33947;46.804;134.252;2023-02-23T09:07:56;101198.66;;;-6.00;46.83
46846;BME280;33947;46.804;134.252;2023-02-23T09:11:01;101191.66;;;-6.02;46.41
46846;BME280;33947;46.804;134.252;2023-02-23T09:14:05;101197.63;;;-5.50;44.66
46846;BME280;33947;46.804;134.252;2023-02-23T09:17:09;101191.63;;;-5.68;44.31
46846;BME280;33947;46.804;134.252;2023-02-23T09:20:15;101217.19;;;-5.39;43.51
46846;BME280;33947;46.804;134.252;2023-02-23T09:23:22;101214.56;;;-5.57;44.20
46846;BME280;33947;46.804;134.252;2023-02-23T09:26:27;101221.00;;;-5.49;44.20
46846;BME280;33947;46.804;134.252;2023-02-23T09:29:32;101220.75;;;-5.54;44.18
46846;BME280;33947;46.804;134.252;2023-02-23T09:32:36;101232.91;;;-6.22;46.15
46846;BME280;33947;46.804;134.252;2023-02-23T09:35:40;101207.59;;;-6.44;46.71
46846;BME280;33947;46.804;134.252;2023-02-23T09:38:47;101230.13;;;-6.08;45.32
46846;BME280;33947;46.804;134.252;2023-02-23T09:42:28;101202.84;;;-6.36;46.20
46846;BME280;33947;46.804;134.252;2023-02-23T09:45:53;101237.19;;;-6.39;46.10
46846;BME280;33947;46.804;134.252;2023-02-23T09:49:04;101213.41;;;-6.81;46.16
46846;BME280;33947;46.804;134.252;2023-02-23T09:52:48;101236.69;;;-6.96;47.39
46846;BME280;33947;46.804;134.252;2023-02-23T09:55:51;101244.16;;;-7.63;49.00
46846;BME280;33947;46.804;134.252;2023-02-23T09:58:59;101235.56;;;-7.92;49.00
46846;BME280;33947;46.804;134.252;2023-02-23T10:05:32;101244.81;;;-7.20;47.50
46846;BME280;33947;46.804;134.252;2023-02-23T10:12:20;101252.34;;;-7.55;48.82
46846;BME280;33947;46.804;134.252;2023-02-23T10:18:59;101253.50;;;-7.65;50.75
46846;BME280;33947;46.804;134.252;2023-02-23T10:25:47;101227.41;;;-7.70;48.42
46846;BME280;33947;46.804;134.252;2023-02-23T10:28:57;101225.81;;;-7.52;48.46
46846;BME280;33947;46.804;134.252;2023-02-23T10:35:21;101254.00;;;-7.56;49.26
46846;BME280;33947;46.804;134.252;2023-02-23T10:38:31;101258.59;;;-7.95;50.21
46846;BME280;33947;46.804;134.252;2023-02-23T10:41:37;101254.53;;;-7.46;49.57
46846;BME280;33947;46.804;134.252;2023-02-23T10:44:44;101263.97;;;-7.17;47.81
46846;BME280;33947;46.804;134.252;2023-02-23T10:51:01;101247.56;;;-7.02;47.44
46846;BME280;33947;46.804;134.252;2023-02-23T10:54:34;101264.59;;;-7.66;50.45
46846;BME280;33947;46.804;134.252;2023-02-23T10:57:38;101243.16;;;-7.50;49.09
46846;BME280;33947;46.804;134.252;2023-02-23T11:00:59;101232.03;;;-7.79;49.63
46846;BME280;33947;46.804;134.252;2023-02-23T11:07:29;101273.31;;;-7.79;49.55
46846;BME280;33947;46.804;134.252;2023-02-23T11:10:34;101262.78;;;-7.97;50.27
46846;BME280;33947;46.804;134.252;2023-02-23T11:16:44;101263.47;;;-8.00;53.01
46846;BME280;33947;46.804;134.252;2023-02-23T11:19:48;101236.69;;;-7.73;50.40
46846;BME280;33947;46.804;134.252;2023-02-23T11:22:53;101258.31;;;-7.56;49.77
46846;BME280;33947;46.804;134.252;2023-02-23T11:26:13;101256.88;;;-7.66;50.44
46846;BME280;33947;46.804;134.252;2023-02-23T11:29:33;101254.97;;;-7.68;51.11
46846;BME280;33947;46.804;134.252;2023-02-23T11:32:40;101211.78;;;-8.31;52.51
46846;BME280;33947;46.804;134.252;2023-02-23T11:35:47;101258.53;;;-8.25;53.33
46846;BME280;33947;46.804;134.252;2023-02-23T11:42:22;101262.69;;;-8.27;53.39
46846;BME280;33947;46.804;134.252;2023-02-23T11:45:33;101267.56;;;-8.03;52.15
46846;BME280;33947;46.804;134.252;2023-02-23T11:49:06;101266.03;;;-8.15;53.67
46846;BME280;33947;46.804;134.252;2023-02-23T11:52:24;101211.03;;;-8.44;53.57
46846;BME280;33947;46.804;134.252;2023-02-23T11:55:36;101250.25;;;-7.91;52.38
46846;BME280;33947;46.804;134.252;2023-02-23T11:58:45;101270.91;;;-7.76;51.74
46846;BME280;33947;46.804;134.252;2023-02-23T12:01:53;101267.00;;;-7.84;51.89
46846;BME280;33947;46.804;134.252;2023-02-23T12:05:12;101242.22;;;-8.39;52.40
46846;BME280;33947;46.804;134.252;2023-02-23T12:08:32;101266.69;;;-8.32;53.92
46846;BME280;33947;46.804;134.252;2023-02-23T12:11:41;101270.44;;;-8.27;53.52
46846;BME280;33947;46.804;134.252;2023-02-23T12:15:27;101268.25;;;-8.49;54.41
46846;BME280;33947;46.804;134.252;2023-02-23T12:18:47;101278.31;;;-8.10;53.76
46846;BME280;33947;46.804;134.252;2023-02-23T12:22:02;101276.28;;;-8.01;53.44
46846;BME280;33947;46.804;134.252;2023-02-23T12:25:38;101278.25;;;-8.54;54.20
46846;BME280;33947;46.804;134.252;2023-02-23T12:28:53;101270.22;;;-8.87;54.49
46846;BME280;33947;46.804;134.252;2023-02-23T12:32:09;101287.03;;;-8.65;54.67
46846;BME280;33947;46.804;134.252;2023-02-23T12:35:24;101275.75;;;-8.81;54.79
46846;BME280;33947;46.804;134.252;2023-02-23T12:45:42;101264.66;;;-8.80;54.75
46846;BME280;33947;46.804;134.252;2023-02-23T12:49:10;101262.91;;;-9.08;55.40
46846;BME280;33947;46.804;134.252;2023-02-23T12:52:24;101263.41;;;-9.40;55.87
46846;BME280;33947;46.804;134.252;2023-02-23T12:55:35;101257.84;;;-9.33;56.13
46846;BME280;33947;46.804;134.252;2023-02-23T12:59:44;101273.94;;;-9.63;56.33
46846;BME280;33947;46.804;134.252;2023-02-23T13:10:06;101255.16;;;-9.62;56.25
46846;BME280;33947;46.804;134.252;2023-02-23T13:24:06;101260.75;;;-10.32;56.99
46846;BME280;33947;46.804;134.252;2023-02-23T13:27:25;101230.66;;;-10.21;55.84
46846;BME280;33947;46.804;134.252;2023-02-23T13:30:30;101253.59;;;-10.24;55.64
46846;BME280;33947;46.804;134.252;2023-02-23T13:33:39;101263.03;;;-10.73;56.81
46846;BME280;33947;46.804;134.252;2023-02-23T13:36:46;101257.84;;;-10.62;57.17
46846;BME280;33947;46.804;134.252;2023-02-23T13:43:55;101240.78;;;-10.61;56.60
46846;BME280;33947;46.804;134.252;2023-02-23T13:50:43;101255.06;;;-10.53;55.84
46846;BME280;33947;46.804;134.252;2023-02-23T13:57:04;101253.16;;;-11.05;56.41
46846;BME280;33947;46.804;134.252;2023-02-23T14:00:21;101241.47;;;-11.25;57.09
46846;BME280;33947;46.804;134.252;2023-02-23T14:03:28;101252.59;;;-11.12;57.35
46846;BME280;33947;46.804;134.252;2023-02-23T14:06:38;101247.25;;;-11.39;60.11
46846;BME280;33947;46.804;134.252;2023-02-23T14:09:54;101238.34;;;-11.21;58.45
46846;BME280;33947;46.804;134.252;2023-02-23T14:16:19;101264.84;;;-10.96;56.92
46846;BME280;33947;46.804;134.252;2023-02-23T14:29:40;101247.16;;;-11.99;58.37
46846;BME280;33947;46.804;134.252;2023-02-23T14:32:48;101248.66;;;-11.90;57.77
46846;BME280;33947;46.804;134.252;2023-02-23T14:35:53;101236.22;;;-12.20;58.20
46846;BME280;33947;46.804;134.252;2023-02-23T14:42:29;101242.75;;;-11.89;57.47
46846;BME280;33947;46.804;134.252;2023-02-23T14:45:37;101248.88;;;-11.87;56.93
46846;BME280;33947;46.804;134.252;2023-02-23T14:49:04;101244.56;;;-12.23;57.70
46846;BME280;33947;46.804;134.252;2023-02-23T14:55:29;101221.44;;;-12.69;57.52
46846;BME280;33947;46.804;134.252;2023-02-23T14:58:35;101245.84;;;-12.62;58.33
46846;BME280;33947;46.804;134.252;2023-02-23T15:01:40;101250.53;;;-12.78;58.98
46846;BME280;33947;46.804;134.252;2023-02-23T15:04:45;101229.75;;;-12.94;59.24
46846;BME280;33947;46.804;134.252;2023-02-23T15:07:49;101249.81;;;-12.88;58.79
46846;BME280;33947;46.804;134.252;2023-02-23T15:11:13;101254.22;;;-12.75;57.78
46846;BME280;33947;46.804;134.252;2023-02-23T15:14:18;101254.78;;;-12.57;57.79
46846;BME280;33947;46.804;134.252;2023-02-23T15:17:31;101211.97;;;-12.92;56.36
46846;BME280;33947;46.804;134.252;2023-02-23T15:20:39;101250.16;;;-13.16;57.66
46846;BME280;33947;46.804;134.252;2023-02-23T15:24:11;101270.41;;;-13.29;58.66
46846;BME280;33947;46.804;134.252;2023-02-23T15:27:22;101250.31;;;-13.14;58.17
46846;BME280;33947;46.804;134.252;2023-02-23T15:30:31;101252.38;;;-12.88;57.30
46846;BME280;33947;46.804;134.252;2023-02-23T15:33:37;101234.66;;;-13.40;57.03
46846;BME280;33947;46.804;134.252;2023-02-23T15:36:43;101238.16;;;-13.49;58.66
46846;BME280;33947;46.804;134.252;2023-02-23T15:39:58;101247.81;;;-13.35;58.35
46846;BME280;33947;46.804;134.252;2023-02-23T15:43:06;101257.00;;;-13.70;58.79
46846;BME280;33947;46.804;134.252;2023-02-23T15:46:21;101249.81;;;-13.63;58.24
46846;BME280;33947;46.804;134.252;2023-02-23T15:49:32;101252.41;;;-13.41;58.18
46846;BME280;33947;46.804;134.252;2023-02-23T15:52:46;101172.97;;;-13.77;57.34
46846;BME280;33947;46.804;134.252;2023-02-23T15:55:54;101230.13;;;-13.54;57.51
46846;BME280;33947;46.804;134.252;2023-02-23T15:59:12;101245.59;;;-13.73;57.23
46846;BME280;33947;46.804;134.252;2023-02-23T16:02:19;101257.63;;;-14.34;59.81
46846;BME280;33947;46.804;134.252;2023-02-23T16:05:27;101256.72;;;-14.45;60.15
46846;BME280;33947;46.804;134.252;2023-02-23T16:08:55;101262.59;;;-14.26;59.73
46846;BME280;33947;46.804;134.252;2023-02-23T16:12:10;101250.09;;;-14.33;58.89
46846;BME280;33947;46.804;134.252;2023-02-23T16:15:31;101256.75;;;-14.04;59.14
46846;BME280;33947;46.804;134.252;2023-02-23T16:18:44;101240.91;;;-14.00;58.50
46846;BME280;33947;46.804;134.252;2023-02-23T16:21:52;101265.06;;;-13.96;57.44
46846;BME280;33947;46.804;134.252;2023-02-23T16:25:02;101260.97;;;-13.94;57.66
46846;BME280;33947;46.804;134.252;2023-02-23T16:28:17;101261.97;;;-13.92;56.82
46846;BME280;33947;46.804;134.252;2023-02-23T16:31:46;101257.22;;;-14.29;57.61
46846;BME280;33947;46.804;134.252;2023-02-23T16:35:16;101250.59;;;-14.37;58.48
46846;BME280;33947;46.804;134.252;2023-02-23T16:38:32;101252.13;;;-14.39;58.19
46846;BME280;33947;46.804;134.252;2023-02-23T16:41:37;101252.13;;;-14.39;57.70
46846;BME280;33947;46.804;134.252;2023-02-23T16:44:43;101191.97;;;-14.87;58.43
46846;BME280;33947;46.804;134.252;2023-02-23T16:47:52;101247.25;;;-14.46;58.42
46846;BME280;33947;46.804;134.252;2023-02-23T16:51:19;101247.63;;;-14.62;58.53
46846;BME280;33947;46.804;134.252;2023-02-23T16:54:24;101254.00;;;-14.57;58.08
46846;BME280;33947;46.804;134.252;2023-02-23T16:57:36;101253.41;;;-14.94;58.66
46846;BME280;33947;46.804;134.252;2023-02-23T17:00:43;101246.53;;;-15.25;58.02
46846;BME280;33947;46.804;134.252;2023-02-23T17:03:48;101250.75;;;-15.15;58.63
46846;BME280;33947;46.804;134.252;2023-02-23T17:06:55;101244.44;;;-15.59;59.54
46846;BME280;33947;46.804;134.252;2023-02-23T17:10:00;101251.13;;;-15.69;60.10
46846;BME280;33947;46.804;134.252;2023-02-23T17:13:07;101248.16;;;-15.74;60.64
46846;BME280;33947;46.804;134.252;2023-02-23T17:16:12;101183.75;;;-16.03;60.51
46846;BME280;33947;46.804;134.252;2023-02-23T17:19:20;101224.03;;;-15.39;60.01
46846;BME280;33947;46.804;134.252;2023-02-23T17:22:29;101204.84;;;-15.25;59.50
46846;BME280;33947;46.804;134.252;2023-02-23T17:25:38;101261.22;;;-14.93;58.77
46846;BME280;33947;46.804;134.252;2023-02-23T17:28:43;101262.53;;;-14.77;58.97
46846;BME280;33947;46.804;134.252;2023-02-23T17:31:48;101232.25;;;-15.33;58.02
46846;BME280;33947;46.804;134.252;2023-02-23T17:34:54;101239.16;;;-15.71;58.97
46846;BME280;33947;46.804;134.252;2023-02-23T17:38:02;101251.59;;;-15.74;59.67
46846;BME280;33947;46.804;134.252;2023-02-23T17:41:15;101259.56;;;-15.41;59.68
46846;BME280;33947;46.804;134.252;2023-02-23T17:44:24;101242.00;;;-15.38;59.73
46846;BME280;33947;46.804;134.252;2023-02-23T17:47:29;101243.81;;;-15.56;59.50
46846;BME280;33947;46.804;134.252;2023-02-23T17:50:34;101204.28;;;-15.72;59.97
46846;BME280;33947;46.804;134.252;2023-02-23T17:53:39;101235.28;;;-15.76;59.79
46846;BME280;33947;46.804;134.252;2023-02-23T17:56:44;101223.03;;;-15.80;60.00
46846;BME280;33947;46.804;134.252;2023-02-23T17:59:48;101233.84;;;-15.82;60.03
46846;BME280;33947;46.804;134.252;2023-02-23T18:02:53;101243.13;;;-15.83;59.38
46846;BME280;33947;46.804;134.252;2023-02-23T18:06:05;101231.63;;;-15.98;59.99
46846;BME280;33947;46.804;134.252;2023-02-23T18:09:11;101236.94;;;-15.57;58.08
46846;BME280;33947;46.804;134.252;2023-02-23T18:12:17;101183.91;;;-16.10;58.13
46846;BME280;33947;46.804;134.252;2023-02-23T18:15:22;101213.03;;;-15.97;57.32
46846;BME280;33947;46.804;134.252;2023-02-23T18:18:27;101216.50;;;-16.44;58.48
46846;BME280;33947;46.804;134.252;2023-02-23T18:21:31;101230.41;;;-16.77;59.41
46846;BME280;33947;46.804;134.252;2023-02-23T18:24:37;101227.72;;;-16.51;59.47
46846;BME280;33947;46.804;134.252;2023-02-23T18:27:42;101231.72;;;-16.16;58.53
46846;BME280;33947;46.804;134.252;2023-02-23T18:30:46;101212.75;;;-16.48;58.86